Airfield :







YOU CAN JOIN US ON...

 
LOGIN :

Register | Disclaimer

   EN    FR    IT 

 









Legend :    VFR   Marginal VFR   IFR   Intensive IFR   Very Intensive IFR
Visi :
Ceiling :
>= 8 km
>= 3000ft
5 to 8 km
1000 to 3000 ft
1500m to 5 km
500 to 1000 ft
800 to 1500m
200 to 500 ft
< 800m
< 200 ft
Symbols :   Thunderstorms  Fog  Heavy snow  Heavy precipitations  Wind > 20 kt






- Airport Elevation : 180 ft
- IATA code : YZV


CYZV - Sept-Iles

CURRENT METAR :
  • 271012Z 07009KT 1SM R09/P6000FT/U -RA BR VV003 10/10 A2969 RMK FG8 SLP058

EXPIRED METARs :
  • 270950Z 06003KT 3/4SM R09/5500VP6000FT/N -DZ BR VV003 10/10 A2969 RMK FG8 SLP059
  • 270940Z 08004KT 3/4SM R09/P6000FT/D -DZ BR VV002 10/10 A2970 RMK FG8 SLP061
  • 270928Z 07003KT 5SM -DZ BR OVC004 10/10 A2970 RMK FG2ST6 SLP061
  • 270900Z 00000KT 10SM BKN006 OVC012 11/11 A2970 RMK SC7SC1 SLP060
  • 270837Z VRB02KT 10SM OVC006 11/11 A2969 RMK SC8 SLP057
  • 270800Z 04004KT 10SM -RA OVC007 11/11 A2968 RMK SC8 SLP053

TAF AMD TAF CYZV
Valid from the 27 at 08:00 until the 28 at 06:00 UTC


270825Z 2708/2806 04005KT P6SM -SHRA OVC008
TEMPO 2708/2711 2SM -SHRA BR OVC004
BECMG 2709/2711 10008KT
FM271100 10008KT 1 1/2SM -SHRA BR OVC004
BECMG 2715/2717 16008KT
FM271700 16008KT P6SM BKN006 OVC040
FM272000 16005KT P6SM FEW006 BKN040
FM280000 08005KT 6SM -SHRA SCT006 OVC040
FM280400 04005KT 2SM -SHRA BR SCT004 BKN006 OVC015 RMK NXT FCST BY 271200Z
CZUL FIR / North America



MET'MAP, your aeronautical weather chart ! - Copyright ORBIFLY December 2007 - Disclaimer

ORBIFLY MET'MAP TEAM :

Programming & Development : Alexandra Zaïnal
Original concept : Baudouin d'Aumeries
Technical & hardware support : Manuel Goepfert
Assistance : Marc-Olivier Méhu




SOURCES & CREDITS :

   NOAA